Johannesburg, South Africa
Current Conditions -  °F | °C
As of 3:30 PM on Friday 28 Nov 2014 (Local Time) from FAOR Reporting Station
Clear Clear  
Wind Chill: 24°   Ceiling: Unl
Heat Index: 24°   Visibility: 6mi
Dew Point:   Wind: 16mph
Humidity: 27%   Direction: 260°W
Pressure: 30.15"   Gusts: NA
Location:  26.19°S, 28.04°E
Report Text: FAOR 281330Z 26014KT CAVOK 24/04 Q1021 NOSIG
Loading
Personal Weather Stations






























Interactive Weather Map New forecast layout! Learn more

10-Day Weather Forecast

Advertisements
Track Severe Weather on mobile